Time;durP1;ratioP1;P1;durP2;ratioP2;P2;SDS_P1;SDS_P2;PMS_P1;PMS_P2;Temp;Humidity;BMP_temperature;BMP_pressure;BME280_temperature;BME280_humidity;BME280_pressure;Samples;Min_cycle;Max_cycle;Signal;HPM_P1;HPM_P2
2022/03/27 00:00:35;;;;;;;5.13;3.90;;;;;11.80;102587.00;;;;5047044;28;20241;-69
2022/03/27 00:03:21;;;;;;;11.67;5.40;;;;;11.70;102583.00;;;;5046911;28;20338;-68
2022/03/27 00:06:08;;;;;;;7.70;4.60;;;;;11.70;102586.00;;;;5047239;28;20318;-69
2022/03/27 00:09:00;;;;;;;6.57;4.73;;;;;11.60;102582.00;;;;5036319;28;20348;-71
2022/03/27 00:11:46;;;;;;;6.83;5.00;;;;;11.60;102582.00;;;;5033238;28;20709;-70
2022/03/27 00:14:32;;;;;;;9.33;5.03;;;;;11.50;102577.00;;;;5047012;28;20271;-69
2022/03/27 00:17:19;;;;;;;9.00;4.83;;;;;11.50;102590.00;;;;5046850;28;20240;-70
2022/03/27 00:20:09;;;;;;;8.73;4.80;;;;;11.50;102586.00;;;;5040325;28;21669;-70
2022/03/27 00:22:56;;;;;;;6.97;4.90;;;;;11.50;102598.00;;;;5035273;28;20236;-70
2022/03/27 00:25:43;;;;;;;9.13;5.77;;;;;11.50;102601.00;;;;5031761;28;20334;-68
2022/03/27 00:28:32;;;;;;;8.27;5.07;;;;;11.50;102599.00;;;;5043100;28;20228;-70
2022/03/27 00:31:18;;;;;;;7.37;4.90;;;;;11.40;102600.00;;;;5046662;28;20253;-70
2022/03/27 00:34:06;;;;;;;7.93;5.27;;;;;11.40;102604.00;;;;5047120;28;20229;-70
2022/03/27 00:36:52;;;;;;;9.30;5.20;;;;;11.30;102602.00;;;;5033691;28;20252;-69
2022/03/27 00:39:40;;;;;;;12.07;6.10;;;;;11.30;102610.00;;;;5045417;28;20243;-68
2022/03/27 00:42:26;;;;;;;8.07;5.23;;;;;11.20;102604.00;;;;5046032;28;20235;-68
2022/03/27 00:45:12;;;;;;;8.37;5.73;;;;;11.10;102609.00;;;;5046826;28;20598;-71
2022/03/27 00:47:58;;;;;;;13.63;6.00;;;;;11.20;102618.00;;;;5036541;28;20344;-70
2022/03/27 00:50:45;;;;;;;8.20;5.63;;;;;11.10;102606.00;;;;5031345;28;20328;-71
2022/03/27 00:53:32;;;;;;;8.87;5.53;;;;;11.00;102605.00;;;;5045983;28;20227;-68
2022/03/27 00:56:20;;;;;;;8.77;5.60;;;;;11.00;102618.00;;;;5045850;28;20347;-70
2022/03/27 00:59:07;;;;;;;10.33;5.73;;;;;10.90;102611.00;;;;5045674;28;20306;-71
2022/03/27 01:01:54;;;;;;;9.47;5.53;;;;;10.80;102594.00;;;;5031200;28;20224;-67
2022/03/27 01:04:45;;;;;;;9.20;5.43;;;;;10.80;102600.00;;;;5046303;28;20729;-70
2022/03/27 01:07:33;;;;;;;11.60;6.53;;;;;10.70;102598.00;;;;5045811;28;21107;-70
2022/03/27 01:10:25;;;;;;;9.90;5.97;;;;;10.70;102599.00;;;;5045300;28;20233;-69
2022/03/27 01:13:18;;;;;;;9.13;5.73;;;;;10.90;102601.00;;;;5046203;28;20239;-70
2022/03/27 01:16:14;;;;;;;10.33;6.00;;;;;10.80;102603.00;;;;5035039;28;20265;-70
2022/03/27 01:19:01;;;;;;;9.77;6.20;;;;;10.80;102599.00;;;;5027332;28;20231;-70
2022/03/27 01:21:49;;;;;;;9.07;6.17;;;;;10.90;102603.00;;;;5045971;28;20224;-70
2022/03/27 01:24:35;;;;;;;11.37;6.10;;;;;10.90;102604.00;;;;5045642;28;20237;-70
2022/03/27 01:27:22;;;;;;;13.43;7.13;;;;;10.90;102596.00;;;;5042689;28;20236;-70
2022/03/27 01:30:10;;;;;;;9.60;6.47;;;;;10.90;102585.00;;;;5045466;28;20275;-71
2022/03/27 01:32:56;;;;;;;11.30;7.43;;;;;10.80;102590.00;;;;5032921;28;20232;-71
2022/03/27 01:35:43;;;;;;;10.77;6.80;;;;;10.60;102591.00;;;;5045555;28;20228;-70
2022/03/27 01:38:30;;;;;;;13.30;8.27;;;;;10.70;102575.00;;;;5029499;28;20237;-71
2022/03/27 01:41:17;;;;;;;13.90;8.10;;;;;10.60;102590.00;;;;5042393;28;20746;-70
2022/03/27 01:44:03;;;;;;;13.10;7.23;;;;;10.80;102573.00;;;;5034583;28;20326;-70
2022/03/27 01:46:49;;;;;;;12.33;7.97;;;;;10.80;102596.00;;;;5038349;28;20236;-71
2022/03/27 01:49:36;;;;;;;14.47;8.27;;;;;10.60;102581.00;;;;5044417;28;20244;-70
2022/03/27 01:52:23;;;;;;;15.70;8.27;;;;;10.70;102581.00;;;;5044857;28;20251;-70
2022/03/27 01:55:13;;;;;;;13.83;8.07;;;;;10.70;102573.00;;;;5042553;28;20816;-70
2022/03/27 01:57:59;;;;;;;18.27;8.67;;;;;10.70;102577.00;;;;5045090;28;20313;-69
2022/03/27 02:00:46;;;;;;;13.53;7.97;;;;;10.70;102576.00;;;;5029322;28;20241;-67
2022/03/27 02:03:33;;;;;;;13.00;7.63;;;;;10.70;102582.00;;;;5043164;28;20312;-69
2022/03/27 02:06:19;;;;;;;13.37;8.13;;;;;10.60;102581.00;;;;5044990;28;20330;-70
2022/03/27 02:09:05;;;;;;;14.13;8.20;;;;;10.60;102573.00;;;;5038680;28;20787;-70
2022/03/27 02:11:53;;;;;;;13.47;8.47;;;;;10.70;102575.00;;;;5028063;28;20248;-68
2022/03/27 02:14:39;;;;;;;12.20;8.03;;;;;10.80;102574.00;;;;5044983;28;20734;-69
2022/03/27 02:17:26;;;;;;;13.03;8.17;;;;;10.80;102578.00;;;;5044428;28;21095;-66
2022/03/27 02:20:13;;;;;;;13.50;8.50;;;;;10.80;102577.00;;;;5036810;28;20233;-70
2022/03/27 02:22:59;;;;;;;13.67;8.27;;;;;10.70;102580.00;;;;5045211;28;20928;-70
2022/03/27 02:25:45;;;;;;;15.73;8.97;;;;;10.80;102575.00;;;;5045166;28;20279;-69
2022/03/27 02:28:33;;;;;;;11.40;7.80;;;;;10.70;102566.00;;;;5043776;28;20227;-70
2022/03/27 02:31:19;;;;;;;13.60;8.37;;;;;10.70;102565.00;;;;5042544;28;20283;-73
2022/03/27 02:34:06;;;;;;;15.40;8.43;;;;;10.70;102534.00;;;;5033627;28;20249;-71
2022/03/27 02:36:52;;;;;;;14.23;8.43;;;;;10.60;102566.00;;;;5044984;28;20378;-70
2022/03/27 02:39:38;;;;;;;13.93;8.83;;;;;10.50;102581.00;;;;5044096;28;20258;-70
2022/03/27 02:42:24;;;;;;;15.00;8.57;;;;;10.50;102574.00;;;;5044272;28;20275;-71
2022/03/27 02:45:12;;;;;;;14.43;8.60;;;;;10.60;102577.00;;;;5045050;28;20228;-68
2022/03/27 02:47:59;;;;;;;15.70;8.57;;;;;10.50;102574.00;;;;5034020;28;20877;-70
2022/03/27 02:50:47;;;;;;;14.00;8.43;;;;;10.40;102567.00;;;;5044647;28;20241;-70
2022/03/27 02:53:33;;;;;;;13.97;8.50;;;;;10.50;102567.00;;;;5044405;28;20350;-69
2022/03/27 02:56:19;;;;;;;16.13;8.47;;;;;10.50;102571.00;;;;5044896;28;20318;-72
2022/03/27 02:59:06;;;;;;;12.30;7.87;;;;;10.30;102559.00;;;;5032668;28;20283;-70
2022/03/27 03:01:54;;;;;;;13.47;8.23;;;;;10.40;102567.00;;;;5029267;28;20239;-71
2022/03/27 03:04:41;;;;;;;13.83;8.80;;;;;10.40;102569.00;;;;5044476;28;20248;-69
2022/03/27 03:07:28;;;;;;;13.07;8.33;;;;;10.30;102568.00;;;;5043995;28;20228;-71
2022/03/27 03:10:15;;;;;;;13.43;8.27;;;;;10.30;102566.00;;;;5044336;28;20836;-70
2022/03/27 03:13:01;;;;;;;15.53;8.83;;;;;10.40;102566.00;;;;5036212;28;20332;-71
2022/03/27 03:15:47;;;;;;;13.30;8.03;;;;;10.20;102564.00;;;;5044662;28;20243;-70
2022/03/27 03:18:35;;;;;;;13.07;7.43;;;;;10.10;102563.00;;;;5036386;28;20235;-71
2022/03/27 03:21:22;;;;;;;12.30;7.73;;;;;10.10;102571.00;;;;5040722;28;20394;-70
2022/03/27 03:24:09;;;;;;;13.80;7.70;;;;;10.10;102564.00;;;;5033129;28;20701;-71
2022/03/27 03:26:56;;;;;;;12.53;7.37;;;;;10.10;102561.00;;;;5029467;28;20228;-70
2022/03/27 03:29:42;;;;;;;13.47;7.77;;;;;10.00;102563.00;;;;5043862;28;20229;-70
2022/03/27 03:32:28;;;;;;;13.27;7.63;;;;;10.00;102558.00;;;;5043958;28;20359;-71
2022/03/27 03:35:16;;;;;;;10.63;7.43;;;;;9.90;102553.00;;;;5044404;28;20401;-71
2022/03/27 03:38:22;;;;;;;10.10;6.73;;;;;9.80;102564.00;;;;5035944;28;20702;-68
2022/03/27 03:41:08;;;;;;;13.47;8.10;;;;;9.90;102558.00;;;;5035598;28;20253;-71
2022/03/27 03:43:55;;;;;;;12.77;7.90;;;;;9.90;102560.00;;;;5047822;28;20437;-71
2022/03/27 03:46:41;;;;;;;11.93;7.50;;;;;9.80;102562.00;;;;5042235;28;20670;-70
2022/03/27 03:49:28;;;;;;;13.47;7.77;;;;;9.90;102559.00;;;;5046891;28;20296;-70
2022/03/27 03:52:15;;;;;;;13.47;7.60;;;;;9.80;102551.00;;;;5047844;28;20587;-71
2022/03/27 03:55:01;;;;;;;11.90;7.00;;;;;9.80;102559.00;;;;5034221;28;20222;-70
2022/03/27 03:57:48;;;;;;;13.63;7.40;;;;;9.80;102558.00;;;;5047569;28;20587;-71
2022/03/27 04:00:34;;;;;;;14.13;7.53;;;;;9.90;102559.00;;;;5047026;28;20257;-70
2022/03/27 04:03:20;;;;;;;11.50;7.43;;;;;9.90;102560.00;;;;5047375;28;20227;-70
2022/03/27 04:06:07;;;;;;;14.10;7.30;;;;;9.80;102555.00;;;;5035020;28;20881;-71
2022/03/27 04:08:55;;;;;;;13.17;7.87;;;;;9.80;102555.00;;;;5030976;28;20240;-70
2022/03/27 04:11:41;;;;;;;13.47;7.87;;;;;9.80;102557.00;;;;5047300;28;20243;-70
2022/03/27 04:14:28;;;;;;;11.97;7.50;;;;;9.80;102559.00;;;;5047234;28;20298;-70
2022/03/27 04:17:15;;;;;;;14.87;8.33;;;;;9.90;102555.00;;;;5047768;28;20227;-70
2022/03/27 04:20:01;;;;;;;14.73;8.60;;;;;9.80;102561.00;;;;5028681;28;20231;-71
2022/03/27 04:22:47;;;;;;;13.37;8.43;;;;;9.70;102550.00;;;;5047396;28;20242;-71
2022/03/27 04:25:35;;;;;;;13.97;8.50;;;;;9.80;102551.00;;;;5046919;28;20886;-70
2022/03/27 04:28:21;;;;;;;12.40;7.70;;;;;10.00;102560.00;;;;5046892;28;20245;-71
2022/03/27 04:31:07;;;;;;;13.63;7.63;;;;;9.80;102558.00;;;;5034391;28;20232;-70
2022/03/27 04:33:53;;;;;;;12.07;6.87;;;;;9.70;102559.00;;;;5046894;28;20218;-71
2022/03/27 04:36:40;;;;;;;14.20;7.33;;;;;9.70;102556.00;;;;5043020;28;20286;-70
2022/03/27 04:39:26;;;;;;;13.80;8.17;;;;;9.60;102557.00;;;;5046301;28;20232;-72
2022/03/27 04:42:14;;;;;;;11.83;7.13;;;;;9.60;102566.00;;;;5046818;28;20234;-70
2022/03/27 04:45:00;;;;;;;12.53;7.03;;;;;9.60;102561.00;;;;5046824;28;20228;-71
2022/03/27 04:47:46;;;;;;;10.27;6.53;;;;;9.50;102562.00;;;;5040812;28;20723;-71
2022/03/27 04:50:32;;;;;;;10.30;6.47;;;;;9.50;102576.00;;;;5045905;28;20239;-70
2022/03/27 04:53:18;;;;;;;12.27;7.40;;;;;9.50;102571.00;;;;5046471;28;21143;-70
2022/03/27 04:56:06;;;;;;;10.83;7.00;;;;;9.50;102570.00;;;;5033337;28;20248;-69
2022/03/27 04:58:53;;;;;;;11.07;6.77;;;;;9.50;102574.00;;;;5057970;28;20237;-71
2022/03/27 05:01:41;;;;;;;12.13;7.17;;;;;9.40;102576.00;;;;5061637;28;20402;-71
2022/03/27 05:04:27;;;;;;;11.67;6.83;;;;;9.40;102574.00;;;;5063120;28;20885;-71
2022/03/27 05:07:13;;;;;;;11.23;6.93;;;;;9.30;102574.00;;;;5056662;28;20243;-72
2022/03/27 05:10:00;;;;;;;11.63;7.17;;;;;9.30;102580.00;;;;5049681;28;20276;-71
2022/03/27 05:12:46;;;;;;;11.63;7.00;;;;;9.20;102560.00;;;;5063976;28;20233;-71
2022/03/27 05:15:34;;;;;;;12.53;7.43;;;;;9.20;102575.00;;;;5061321;28;20234;-70
2022/03/27 05:18:21;;;;;;;11.40;6.80;;;;;9.30;102581.00;;;;5062866;28;20269;-72
2022/03/27 05:21:07;;;;;;;12.47;7.23;;;;;9.30;102588.00;;;;5049218;28;20613;-70
2022/03/27 05:23:53;;;;;;;11.57;6.87;;;;;9.20;102569.00;;;;5045953;28;20635;-69
2022/03/27 05:26:39;;;;;;;10.23;6.53;;;;;9.30;102587.00;;;;5046261;28;20505;-71
2022/03/27 05:29:26;;;;;;;12.57;6.90;;;;;9.30;102579.00;;;;5045408;28;21031;-70
2022/03/27 05:32:14;;;;;;;13.37;7.07;;;;;9.20;102586.00;;;;5031079;28;20289;-72
2022/03/27 05:35:01;;;;;;;15.30;6.63;;;;;9.40;102595.00;;;;5045654;28;20222;-69
2022/03/27 05:37:49;;;;;;;11.03;6.67;;;;;9.30;102597.00;;;;5045869;28;20701;-70
2022/03/27 05:40:35;;;;;;;14.83;7.17;;;;;9.20;102590.00;;;;5045086;28;20253;-70
2022/03/27 05:43:21;;;;;;;14.07;7.23;;;;;9.10;102590.00;;;;5045775;28;20239;-71
2022/03/27 05:46:08;;;;;;;13.07;7.87;;;;;9.20;102589.00;;;;5028469;28;20283;-70
2022/03/27 05:48:56;;;;;;;15.63;7.93;;;;;9.10;102588.00;;;;5044899;28;20234;-67
2022/03/27 05:51:42;;;;;;;12.97;7.43;;;;;9.10;102590.00;;;;5046087;28;20234;-70
2022/03/27 05:54:28;;;;;;;14.50;7.23;;;;;9.10;102583.00;;;;5046125;28;20232;-70
2022/03/27 05:57:18;;;;;;;14.60;8.07;;;;;9.20;102596.00;;;;5040338;28;20307;-70
2022/03/27 06:00:06;;;;;;;11.10;7.00;;;;;9.30;102594.00;;;;5029933;28;20226;-70
2022/03/27 06:02:53;;;;;;;14.90;8.10;;;;;9.30;102594.00;;;;5042737;28;20239;-70
2022/03/27 06:05:40;;;;;;;14.43;7.23;;;;;9.30;102597.00;;;;5044714;28;20241;-67
2022/03/27 06:08:26;;;;;;;13.67;8.23;;;;;9.40;102596.00;;;;5044683;28;20236;-69
2022/03/27 06:11:13;;;;;;;14.97;7.70;;;;;9.40;102595.00;;;;5032177;28;20358;-71
2022/03/27 06:13:59;;;;;;;14.60;7.93;;;;;9.40;102598.00;;;;5045104;28;20697;-70
2022/03/27 06:16:45;;;;;;;13.97;7.63;;;;;9.30;102595.00;;;;5045902;28;20249;-71
2022/03/27 06:19:31;;;;;;;14.90;7.43;;;;;9.30;102603.00;;;;5039295;28;20231;-68
2022/03/27 06:22:19;;;;;;;14.70;7.77;;;;;9.30;102596.00;;;;5033519;28;20240;-68
2022/03/27 06:25:06;;;;;;;12.33;7.00;;;;;9.30;102572.00;;;;5029978;28;20269;-70
2022/03/27 06:27:54;;;;;;;18.83;8.00;;;;;9.30;102603.00;;;;5044722;28;20364;-70
2022/03/27 06:30:41;;;;;;;23.27;8.57;;;;;9.40;102604.00;;;;5044586;28;20245;-71
2022/03/27 06:33:27;;;;;;;13.33;7.50;;;;;9.40;102607.00;;;;5044678;28;20662;-70
2022/03/27 06:36:13;;;;;;;14.73;7.83;;;;;9.50;102607.00;;;;5029214;28;20233;-70
2022/03/27 06:39:02;;;;;;;16.40;7.47;;;;;9.70;102611.00;;;;5043854;28;20798;-68
2022/03/27 06:41:48;;;;;;;13.50;7.90;;;;;9.60;102611.00;;;;5044549;28;20602;-71
2022/03/27 06:44:35;;;;;;;12.40;6.77;;;;;9.50;102610.00;;;;5044498;28;20247;-70
2022/03/27 06:47:22;;;;;;;11.97;6.83;;;;;9.50;102617.00;;;;5031937;28;20350;-69
2022/03/27 06:50:09;;;;;;;12.10;7.30;;;;;9.50;102609.00;;;;5029696;28;20230;-67
2022/03/27 06:52:55;;;;;;;12.87;7.53;;;;;9.50;102604.00;;;;5044586;28;20238;-70
2022/03/27 06:55:43;;;;;;;19.50;9.43;;;;;9.40;102568.00;;;;5044868;28;20231;-68
2022/03/27 06:58:29;;;;;;;13.80;7.80;;;;;9.60;102613.00;;;;5044371;28;20245;-69
2022/03/27 07:04:29;;;;;;;12.30;6.13;;;;;9.60;102619.00;;;;5002945;28;20234;-70
2022/03/27 07:07:15;;;;;;;15.10;7.77;;;;;9.50;102609.00;;;;5031302;28;20234;-70
2022/03/27 07:10:01;;;;;;;13.37;7.17;;;;;9.30;102614.00;;;;5043692;28;20261;-70
2022/03/27 07:12:49;;;;;;;15.47;7.57;;;;;9.50;102611.00;;;;5044307;28;20230;-67
2022/03/27 07:15:35;;;;;;;13.07;7.80;;;;;9.50;102610.00;;;;5046337;28;20326;-70
2022/03/27 07:18:22;;;;;;;14.43;7.50;;;;;9.50;102609.00;;;;5035136;28;20365;-69
2022/03/27 07:21:08;;;;;;;12.87;7.50;;;;;9.40;102613.00;;;;5042949;28;20239;-69
2022/03/27 07:23:54;;;;;;;15.80;7.60;;;;;9.40;102611.00;;;;5048007;28;20247;-70
2022/03/27 07:26:41;;;;;;;13.37;8.00;;;;;9.60;102603.00;;;;5045581;28;20239;-68
2022/03/27 07:29:30;;;;;;;14.17;8.17;;;;;9.50;102606.00;;;;5047707;28;20796;-70
2022/03/27 07:32:16;;;;;;;14.23;8.00;;;;;9.60;102613.00;;;;5035092;28;20239;-70
2022/03/27 07:35:03;;;;;;;14.80;7.97;;;;;9.70;102603.00;;;;5047198;28;20222;-70
2022/03/27 07:37:51;;;;;;;15.60;7.97;;;;;9.50;102605.00;;;;5047744;28;20240;-70
2022/03/27 07:40:38;;;;;;;15.00;7.93;;;;;9.40;102586.00;;;;5047249;28;20239;-70
2022/03/27 07:43:24;;;;;;;16.03;8.37;;;;;9.60;102615.00;;;;5036400;28;20657;-66
2022/03/27 07:46:13;;;;;;;15.60;8.60;;;;;9.50;102615.00;;;;5042502;28;20238;-69
2022/03/27 07:48:59;;;;;;;16.97;7.70;;;;;9.50;102623.00;;;;5046170;28;20234;-69
2022/03/27 07:51:46;;;;;;;16.33;8.37;;;;;9.50;102628.00;;;;5047985;28;20406;-69
2022/03/27 07:54:32;;;;;;;15.20;8.23;;;;;9.50;102628.00;;;;5047529;28;20250;-70
2022/03/27 07:57:20;;;;;;;14.80;7.57;;;;;9.60;102619.00;;;;5034704;28;20246;-67
2022/03/27 08:00:10;;;;;;;17.60;8.73;;;;;9.60;102631.00;;;;5047170;28;20916;-70
2022/03/27 08:02:58;;;;;;;16.63;8.53;;;;;9.70;102632.00;;;;5047397;28;20252;-70
2022/03/27 08:05:44;;;;;;;13.30;7.73;;;;;10.00;102638.00;;;;5047387;28;20816;-70
2022/03/27 08:08:31;;;;;;;13.97;7.63;;;;;10.00;102635.00;;;;5046873;28;20258;-68
2022/03/27 08:11:18;;;;;;;14.17;7.53;;;;;9.90;102633.00;;;;5033874;28;20702;-71
2022/03/27 08:14:05;;;;;;;17.20;8.83;;;;;9.90;102628.00;;;;5047288;28;20768;-70
2022/03/27 08:16:51;;;;;;;18.33;10.07;;;;;10.10;102633.00;;;;5042932;28;20231;-70
2022/03/27 08:19:39;;;;;;;15.47;8.10;;;;;10.00;102626.00;;;;5039615;28;20267;-70
2022/03/27 08:22:25;;;;;;;18.43;8.87;;;;;10.00;102640.00;;;;5035501;28;20235;-70
2022/03/27 08:26:55;;;;;;;12.93;7.43;;;;;10.00;102651.00;;;;5047381;28;20240;-69
2022/03/27 08:28:19;;;;;;;14.13;8.20;;;;;10.10;102643.00;;;;5033097;28;20228;-70
2022/03/27 08:31:06;;;;;;;14.73;7.77;;;;;9.90;102639.00;;;;5046970;28;20709;-71
2022/03/27 08:33:52;;;;;;;16.27;8.17;;;;;10.10;102641.00;;;;5046654;28;20239;-70
2022/03/27 08:36:39;;;;;;;15.57;8.47;;;;;10.00;102641.00;;;;5045700;28;20902;-71
2022/03/27 08:39:27;;;;;;;17.67;9.20;;;;;9.90;102635.00;;;;5034250;28;20236;-71
2022/03/27 08:42:14;;;;;;;18.20;8.73;;;;;9.80;102644.00;;;;5031671;28;20235;-71
2022/03/27 08:45:01;;;;;;;17.47;9.33;;;;;10.00;102629.00;;;;5046574;28;20281;-71
2022/03/27 08:47:47;;;;;;;14.80;8.43;;;;;10.20;102638.00;;;;5034703;28;20311;-70
2022/03/27 08:50:39;;;;;;;15.03;8.67;;;;;10.00;102641.00;;;;5046734;28;20238;-70
2022/03/27 08:53:31;;;;;;;15.70;9.07;;;;;10.20;102630.00;;;;5035572;28;20736;-70
2022/03/27 08:56:18;;;;;;;14.43;8.53;;;;;10.20;102629.00;;;;5032739;28;20239;-70
2022/03/27 08:59:08;;;;;;;17.17;9.50;;;;;10.30;102635.00;;;;5045110;28;20236;-70
2022/03/27 09:01:54;;;;;;;18.73;9.53;;;;;10.40;102646.00;;;;5046474;28;20632;-71
2022/03/27 09:04:42;;;;;;;18.07;8.80;;;;;10.40;102642.00;;;;5046435;28;20314;-71
2022/03/27 09:07:30;;;;;;;17.30;9.13;;;;;10.30;102648.00;;;;5034930;28;20228;-68
2022/03/27 09:10:18;;;;;;;18.77;9.73;;;;;10.40;102650.00;;;;5046343;28;20233;-70
2022/03/27 09:13:06;;;;;;;19.60;9.57;;;;;10.40;102653.00;;;;5046274;28;20662;-70
2022/03/27 09:16:01;;;;;;;17.83;9.00;;;;;10.70;102617.00;;;;5045986;28;20364;-71
2022/03/27 09:18:51;;;;;;;17.53;9.23;;;;;10.60;102649.00;;;;5043619;28;20247;-68
2022/03/27 09:21:51;;;;;;;19.57;10.53;;;;;10.80;102659.00;;;;5036798;28;20241;-70
2022/03/27 09:24:38;;;;;;;20.20;9.90;;;;;10.60;102653.00;;;;5036898;28;20783;-69
2022/03/27 09:27:32;;;;;;;20.10;9.50;;;;;10.70;102647.00;;;;5046091;28;20313;-68
2022/03/27 09:30:18;;;;;;;18.20;9.73;;;;;10.80;102643.00;;;;5046203;28;20236;-70
2022/03/27 09:33:04;;;;;;;21.97;9.67;;;;;11.10;102644.00;;;;5045730;28;20228;-70
2022/03/27 09:36:04;;;;;;;17.67;9.10;;;;;11.20;102647.00;;;;5046374;28;20249;-70
2022/03/27 09:38:59;;;;;;;18.60;9.43;;;;;11.30;102646.00;;;;5044577;28;20237;-70
2022/03/27 09:41:48;;;;;;;19.83;9.57;;;;;11.40;102635.00;;;;5045496;28;20647;-70
2022/03/27 09:44:42;;;;;;;17.47;8.93;;;;;11.40;102634.00;;;;5041737;28;20370;-69
2022/03/27 09:47:30;;;;;;;19.83;9.80;;;;;11.70;102633.00;;;;5032047;28;20351;-66
2022/03/27 09:50:31;;;;;;;20.13;9.53;;;;;11.60;102643.00;;;;5030353;28;20232;-69
2022/03/27 09:53:23;;;;;;;21.00;10.53;;;;;11.50;102604.00;;;;5031069;28;20269;-71
2022/03/27 09:56:13;;;;;;;17.67;9.30;;;;;11.70;102615.00;;;;5044350;28;20224;-69
2022/03/27 09:59:00;;;;;;;18.90;9.87;;;;;12.00;102619.00;;;;5045356;28;20237;-70
2022/03/27 10:01:47;;;;;;;19.57;10.10;;;;;11.90;102618.00;;;;5045551;28;20241;-70
2022/03/27 10:04:51;;;;;;;18.93;8.67;;;;;11.90;102614.00;;;;5034997;28;20241;-70
2022/03/27 10:07:40;;;;;;;22.67;8.83;;;;;12.40;102612.00;;;;5035560;28;20306;-70
2022/03/27 10:10:27;;;;;;;17.83;9.57;;;;;12.80;102609.00;;;;5032311;28;20704;-70
2022/03/27 10:13:13;;;;;;;18.47;9.50;;;;;12.70;102614.00;;;;5046380;28;20226;-71
2022/03/27 10:16:00;;;;;;;15.80;8.67;;;;;12.60;102606.00;;;;5046454;28;20596;-70
2022/03/27 10:18:48;;;;;;;13.43;7.33;;;;;12.80;102595.00;;;;5045522;28;20259;-70
2022/03/27 10:21:36;;;;;;;15.70;7.93;;;;;12.80;102603.00;;;;5034118;28;20716;-67
2022/03/27 10:24:30;;;;;;;16.97;8.53;;;;;12.90;102596.00;;;;5030562;28;20328;-71
2022/03/27 10:27:18;;;;;;;16.23;7.50;;;;;12.90;102591.00;;;;5029291;28;20271;-70
2022/03/27 10:30:06;;;;;;;14.33;6.93;;;;;13.10;102594.00;;;;5044523;28;20327;-67
2022/03/27 10:32:52;;;;;;;15.40;8.30;;;;;13.50;102584.00;;;;5044948;28;20307;-70
2022/03/27 10:35:51;;;;;;;11.70;6.47;;;;;13.40;102580.00;;;;5045009;28;20602;-69
2022/03/27 10:38:46;;;;;;;12.83;7.27;;;;;13.70;102573.00;;;;5034308;28;20356;-68
2022/03/27 10:41:37;;;;;;;11.77;6.43;;;;;13.60;102569.00;;;;5044933;28;20229;-69
2022/03/27 10:44:31;;;;;;;12.10;6.80;;;;;13.90;102575.00;;;;5030535;28;20718;-71
2022/03/27 10:47:19;;;;;;;13.30;7.10;;;;;14.00;102568.00;;;;5028230;28;20725;-70
2022/03/27 10:50:24;;;;;;;14.63;6.70;;;;;14.20;102563.00;;;;5047555;28;20239;-71
2022/03/27 10:53:12;;;;;;;13.37;6.70;;;;;14.40;102568.00;;;;5049032;28;20236;-67
2022/03/27 10:55:58;;;;;;;14.30;6.87;;;;;14.30;102557.00;;;;5048833;28;20295;-71
2022/03/27 10:58:45;;;;;;;12.43;6.73;;;;;14.60;102554.00;;;;5046035;28;20297;-70
2022/03/27 11:01:39;;;;;;;12.40;6.87;;;;;14.70;102558.00;;;;5048807;28;20575;-69
2022/03/27 11:04:38;;;;;;;9.93;5.50;;;;;15.00;102555.00;;;;5034676;28;20336;-72
2022/03/27 11:07:25;;;;;;;8.97;5.00;;;;;15.00;102553.00;;;;5034404;28;20257;-69
2022/03/27 11:10:40;;;;;;;9.00;5.10;;;;;15.00;102550.00;;;;5048097;28;20315;-69
2022/03/27 11:13:40;;;;;;;8.90;4.80;;;;;15.30;102530.00;;;;5047987;28;21032;-70
2022/03/27 11:16:26;;;;;;;12.50;5.77;;;;;15.50;102542.00;;;;5034517;28;20224;-71
2022/03/27 11:19:40;;;;;;;9.70;5.40;;;;;15.40;102548.00;;;;5043116;28;20237;-69
2022/03/27 11:22:51;;;;;;;9.77;4.93;;;;;15.50;102536.00;;;;5048028;28;20711;-70
2022/03/27 11:25:47;;;;;;;9.70;5.27;;;;;15.40;102543.00;;;;5037118;28;20239;-69
2022/03/27 11:28:45;;;;;;;9.17;4.57;;;;;15.50;102540.00;;;;5035388;28;20227;-71
2022/03/27 11:31:33;;;;;;;7.13;4.67;;;;;15.40;102516.00;;;;5035604;28;20352;-70
2022/03/27 11:34:21;;;;;;;9.50;5.10;;;;;15.50;102518.00;;;;5048459;28;20703;-67
2022/03/27 11:37:22;;;;;;;7.73;4.73;;;;;15.70;102515.00;;;;5047730;28;20229;-71
2022/03/27 11:40:38;;;;;;;8.43;4.60;;;;;16.40;102512.00;;;;5046870;28;20828;-72
2022/03/27 11:43:34;;;;;;;9.20;5.00;;;;;16.50;102507.00;;;;5032448;28;20233;-70
2022/03/27 11:46:24;;;;;;;8.10;5.17;;;;;16.50;102513.00;;;;5037448;28;20235;-72
2022/03/27 11:49:11;;;;;;;7.80;4.80;;;;;16.30;102501.00;;;;5045903;28;20771;-71
2022/03/27 11:52:05;;;;;;;10.10;4.53;;;;;16.80;102510.00;;;;5047574;28;20239;-68
2022/03/27 11:55:03;;;;;;;8.00;5.07;;;;;16.60;102505.00;;;;5047910;28;20236;-71
2022/03/27 11:57:53;;;;;;;7.30;4.40;;;;;16.80;102499.00;;;;5039072;28;20232;-71
2022/03/27 12:00:43;;;;;;;8.37;5.20;;;;;17.20;102498.00;;;;5036046;28;20839;-71
2022/03/27 12:03:30;;;;;;;8.73;5.20;;;;;17.40;102479.00;;;;5033509;28;20319;-70
2022/03/27 12:06:19;;;;;;;7.50;4.60;;;;;17.70;102476.00;;;;5047571;28;20229;-68
2022/03/27 12:09:06;;;;;;;7.87;4.83;;;;;17.80;102468.00;;;;5046940;28;20303;-71
2022/03/27 12:12:05;;;;;;;8.30;4.20;;;;;17.70;102481.00;;;;5047530;28;20279;-70
2022/03/27 12:14:51;;;;;;;6.87;4.40;;;;;17.80;102473.00;;;;5039082;28;20225;-67
2022/03/27 12:17:46;;;;;;;8.10;4.30;;;;;17.80;102475.00;;;;5034086;28;20247;-72
2022/03/27 12:20:48;;;;;;;6.47;4.43;;;;;18.10;102475.00;;;;5025777;28;20229;-70
2022/03/27 12:23:36;;;;;;;5.43;3.87;;;;;18.20;102477.00;;;;5033972;28;20335;-70
2022/03/27 12:29:42;;;;;;;9.77;4.93;;;;;18.40;102467.00;;;;5031351;28;20236;-69
2022/03/27 12:32:28;;;;;;;7.20;4.30;;;;;18.30;102469.00;;;;5032191;28;20359;-70
2022/03/27 12:35:23;;;;;;;8.27;4.60;;;;;18.20;102459.00;;;;5046769;28;20228;-70
2022/03/27 12:38:10;;;;;;;8.07;4.87;;;;;18.10;102452.00;;;;5046426;28;20237;-71
2022/03/27 12:40:56;;;;;;;7.90;5.00;;;;;17.90;102449.00;;;;5046640;28;20311;-68
2022/03/27 12:43:56;;;;;;;7.17;4.47;;;;;17.80;102445.00;;;;5046772;28;20262;-70
2022/03/27 12:46:50;;;;;;;9.40;5.47;;;;;18.40;102433.00;;;;5023673;28;20241;-71
2022/03/27 12:49:47;;;;;;;6.77;4.17;;;;;18.90;102448.00;;;;5037143;28;20364;-71
2022/03/27 12:52:43;;;;;;;7.30;4.40;;;;;18.80;102441.00;;;;5032973;28;20229;-71
2022/03/27 12:55:42;;;;;;;7.30;4.87;;;;;18.60;102436.00;;;;5046601;28;20233;-70
2022/03/27 12:58:37;;;;;;;8.70;4.43;;;;;18.50;102434.00;;;;5036078;28;20601;-70
2022/03/27 13:01:24;;;;;;;7.33;4.90;;;;;19.00;102431.00;;;;5046221;28;20228;-70
2022/03/27 13:04:13;;;;;;;7.07;5.20;;;;;19.50;102432.00;;;;5046516;28;20361;-71
2022/03/27 13:07:00;;;;;;;7.73;4.87;;;;;19.40;102430.00;;;;5046245;28;20364;-71
2022/03/27 13:09:53;;;;;;;9.47;5.37;;;;;19.80;102423.00;;;;5035490;28;20885;-70
2022/03/27 13:12:39;;;;;;;9.03;5.37;;;;;19.60;102426.00;;;;5032808;28;20592;-70
2022/03/27 13:15:39;;;;;;;8.17;5.07;;;;;19.40;102425.00;;;;5030119;28;20221;-70
2022/03/27 13:18:30;;;;;;;8.20;5.10;;;;;19.70;102421.00;;;;5041611;28;20709;-70
2022/03/27 13:21:17;;;;;;;10.90;4.77;;;;;19.40;102422.00;;;;5045845;28;20232;-71
2022/03/27 13:24:05;;;;;;;8.70;5.00;;;;;19.30;102418.00;;;;5045600;28;20722;-70
2022/03/27 13:26:55;;;;;;;7.43;5.37;;;;;19.70;102415.00;;;;5046115;28;20246;-70
2022/03/27 13:29:42;;;;;;;7.93;5.23;;;;;19.50;102408.00;;;;5033310;28;20380;-70
2022/03/27 13:32:28;;;;;;;8.10;4.90;;;;;19.90;102406.00;;;;5030124;28;20235;-71
2022/03/27 13:35:15;;;;;;;8.93;5.53;;;;;19.90;102403.00;;;;5045688;28;20226;-71
2022/03/27 13:38:01;;;;;;;8.73;5.10;;;;;19.80;102397.00;;;;5045602;28;20300;-69
2022/03/27 13:43:53;;;;;;;8.27;4.80;;;;;19.90;102373.00;;;;5041306;28;20253;-66
2022/03/27 13:46:39;;;;;;;9.20;5.47;;;;;19.80;102402.00;;;;5020892;28;20237;-69
2022/03/27 13:49:26;;;;;;;9.23;5.53;;;;;20.10;102394.00;;;;5044926;28;20239;-72
2022/03/27 13:52:12;;;;;;;11.70;5.60;;;;;20.20;102390.00;;;;5041425;28;20239;-70
2022/03/27 13:54:59;;;;;;;10.60;5.70;;;;;20.10;102394.00;;;;5045549;28;20595;-69
2022/03/27 13:57:45;;;;;;;8.53;5.20;;;;;20.20;102393.00;;;;5034096;28;20785;-70